Bjorn Goop

Bjorn Goop

Statistiques 2018

  • Courses courues : 220
  • Nb de victoires : 31
  • Nb de places : 86
  • Écart gagnant : -
  • Réussite à la gagne : 14%
  • Réussite à la place : 39%
Musique : 1a 8a 9a 2a 8a 2a 3a 2a 4a 2a 3a 0a 6a 0a 1a 0a 5a 8a
DateRangCatégorieAlloc.Dist.HippodromeChevalRed. KmSpé.
08/07/18 1 Trot 21 000€ 2 750m La Capelle Franceville 1'17"3 Attelé
08/07/18 8 Trot 21 000€ 2 700m La Capelle Embleme Castelets 1'16"5 Attelé
08/07/18 9 Trot 100 000€ 1 609m La Capelle Dreammoko 1'12"0 Attelé
08/07/18 2 Trot 20 000€ 2 700m La Capelle Deepstack 1'13"7 Attelé
08/07/18 8 Trot 22 000€ 2 700m La Capelle Cocktail Desbois 1'14"9 Attelé
08/07/18 2 Trot 25 000€ 2 750m La Capelle Beguin d'Ali 1'14"8 Attelé
04/07/18 3 Trot 9 699€ 1 640m Swe-Lindesberg Food Money 1'11"9 Attelé
30/06/18 2 Trot 24 248€ 2 140m Swe-Farjestad Ragazzo Da Sopra 1'11"9 Attelé
30/06/18 4 Trot 38 797€ 2 140m Swe-Farjestad I Love Paris 1'11"2 Attelé
29/06/18 2 Trot 7 274€ 3 200m Swe-Farjestad Reckless 1'14"6 Attelé
27/06/18 3 Trot 5 819€ 2 080m Swe-Amal Wir Ideal 1'14"4 Attelé
24/06/18 6 Trot 19 398€ 1 640m Swe-Kalmar B.B.S. Sugarlight 1'11"9 Attelé
24/06/18 0 Trot 12 124€ 1 640m Swe-Kalmar Early Pactol 1'14"3 Attelé
24/06/18 0 Trot 12 124€ 3 160m Swe-Kalmar Explosive Merlot 1'17"8 Attelé
22/06/18 0 Trot 2 424€ 2 140m Swe-Arjang K.N. Speedy Chris 1'15"1 Attelé
22/06/18 1 Trot 2 424€ 2 640m Swe-Arjang Grandfather Bill 1'16"5 Attelé
19/06/18 5 Trot 9 699€ 1 640m Swe-Solvalla Greece Boko 1'11"8 Attelé
15/06/18 8 Trot 1 939€ 2 160m Swe-Lindesberg Pax 1'15"8 Attelé
12/06/18 7 Trot 5 819€ 1 640m Swe-Solvalla Desefinado 1'12"6 Attelé
11/06/18 1 Trot 4 849€ 3 140m Swe-Farjestad Mister Niky 1'16"3 Attelé
31/05/18 0 Trot 4 690€ 1 640m Swe-Aby Tore 1'12"0 Attelé
31/05/18 1 Trot 3 752€ 2 140m Swe-Aby Ula Mil 1'13"6 Attelé
27/05/18 1 Trot 37 523€ 1 640m Swe-Solvalla Maze Runner 1'11"6 Attelé
26/05/18 5 Trot 84 427€ 3 160m Swe-Solvalla Ready Ribb 1'13"2 Attelé
26/05/18 4 Trot 23 452€ 2 140m Swe-Solvalla Glenn Boko 1'11"5 Attelé
26/05/18 2 Trot 28 142€ 2 140m Swe-Solvalla Bryssel 1'11"9 Attelé
26/05/18 7 Trot 23 452€ 2 160m Swe-Solvalla Kashmary Night 1'13"9 Attelé
26/05/18 D Trot 23 452€ 1 640m Swe-Solvalla Inga In Heaven Attelé
26/05/18 2 Trot 56 285€ Swe-Solvalla Sorbet 1'10"4 Attelé
26/05/18 5 Trot 23 452€ 2 140m Swe-Solvalla Ragazzo Da Sopra 1'11"6 Attelé
26/05/18 0 Trot 9 380€ 2 140m Swe-Solvalla Entertainment As 1'12"9 Attelé
25/05/18 D Trot 7 035€ 2 140m Swe-Solvalla Rose Garden Attelé
19/05/18 D Trot 46 904€ 1 609m Swe-Gavle Nobel Amok Attelé
19/05/18 5 Trot 14 071€ 2 140m Swe-Gavle Juvels Boy 1'12"3 Attelé
18/05/18 7 Trot 44 000€ 2 850m Vincennes Eiko Vet 1'15"2 Attelé lire

N'a joué aucun rôle utile.

18/05/18 4 Trot 72 000€ 2 850m Vincennes Toseland Kyu 1'13"9 Attelé lire

Un des animateurs, a été progressivement dominé dans la phase finale.

13/05/18 3 Trot 78 629€ 2 011m Den-Copenhagen Cruzado Dela Noche 1'11"7 Attelé
12/05/18 3 Trot 14 071€ 2 140m Swe-Aby Bryssel 1'12"5 Attelé
12/05/18 4 Trot 18 761€ 1 609m Swe-Aby B.B.S. Sugarlight 1'10"8 Attelé
12/05/18 5 Trot 37 523€ 1 640m Swe-Aby Isabella Boshoeve 1'15"9 Attelé
05/05/18 0 Trot 39 408€ 3 160m Swe-Orebro Bryssel Attelé
05/05/18 3 Trot 19 704€ 1 609m Swe-Orebro Deuxieme Picsous 1'10"4 Attelé
04/05/18 4 Trot 50 000€ 2 100m Vincennes Elevation 1'15"5 Attelé lire

Attentiste en queue de peloton, a donné un assez bon coup de reins dans la phase finale.

04/05/18 2 Trot 50 000€ 2 100m Vincennes Eugenito du Noyer 1'12"9 Attelé lire

Après avoir figuré, a donné un très bon coup de reins depuis la sortie du tournant final.

04/05/18 0 Trot 48 000€ 2 100m Vincennes Danne Edel Attelé lire

Principal animateur, a marqué le pas dans la phase finale.

01/05/18 2 Trot 1 600m Ity-Naples Dreammoko Attelé
01/05/18 D Trot 1 600m Ity-Naples Roger Degli Ulivi Attelé
01/05/18 2 Trot 1 600m Ity-Naples Dreammoko Attelé
01/05/18 8 Trot 1 600m Ity-Naples Rod Stewart Attelé
30/04/18 D Trot 34 000€ 2 150m Enghien Soisy Fantastic Love Attelé lire

A été sanctionné dans le premier tournant.

En poursuivant votre navigation sur ce site, vous acceptez nos CGU et l'utilisation de cookies afin de réaliser des statistiques d'audiences et vous proposer une navigation optimale, la possibilité de partager des contenus sur des réseaux sociaux ainsi que des services et offres adaptés à vos centres d'intérêts.
Pour en savoir plus et paramétrer les cookies...